Time;durP1;ratioP1;P1;durP2;ratioP2;P2;SDS_P1;SDS_P2;PMS_P1;PMS_P2;Temp;Humidity;BMP_temperature;BMP_pressure;BME280_temperature;BME280_humidity;BME280_pressure;Samples;Min_cycle;Max_cycle;Signal;HPM_P1;HPM_P2
2021/06/08 00:00:46;;;;;;;13.0;11.9;;;;;;;18.0;56.0;102110;;;;
2021/06/08 00:02:46;;;;;;;11.3;8.6;;;;;;;18.2;55.0;102110;;;;
2021/06/08 00:04:46;;;;;;;11.3;8.6;;;;;;;18.1;55.7;102110;;;;
2021/06/08 00:06:46;;;;;;;11.3;8.6;;;;;;;18.0;55.2;102110;;;;
2021/06/08 00:10:46;;;;;;;11.3;8.6;;;;;;;18.1;54.5;102110;;;;
2021/06/08 00:14:46;;;;;;;11.3;8.6;;;;;;;18.0;54.4;102120;;;;
2021/06/08 00:16:46;;;;;;;11.3;8.6;;;;;;;17.9;54.3;102120;;;;
2021/06/08 00:18:46;;;;;;;11.3;8.6;;;;;;;17.8;54.4;102110;;;;
2021/06/08 00:22:46;;;;;;;7.9;7.1;;;;;;;17.9;54.4;102110;;;;
2021/06/08 00:24:46;;;;;;;7.9;7.1;;;;;;;17.7;54.7;102110;;;;
2021/06/08 00:28:46;;;;;;;7.9;7.1;;;;;;;17.8;53.9;102110;;;;
2021/06/08 00:30:46;;;;;;;7.9;7.1;;;;;;;17.7;54.3;102110;;;;
2021/06/08 00:36:46;;;;;;;7.9;7.1;;;;;;;17.8;53.4;102110;;;;
2021/06/08 00:40:46;;;;;;;7.9;7.1;;;;;;;17.7;53.4;102110;;;;
2021/06/08 00:42:46;;;;;;;7.4;6.7;;;;;;;17.6;53.5;102110;;;;
2021/06/08 00:50:46;;;;;;;7.4;6.7;;;;;;;17.5;53.6;102120;;;;
2021/06/08 01:00:46;;;;;;;7.4;6.7;;;;;;;17.4;54.0;102110;;;;
2021/06/08 01:02:46;;;;;;;7.7;6.7;;;;;;;17.5;53.4;102120;;;;
2021/06/08 01:04:46;;;;;;;7.7;6.7;;;;;;;17.3;53.8;102110;;;;
2021/06/08 01:06:48;;;;;;;7.7;6.7;;;;;;;17.2;53.6;102110;;;;
2021/06/08 01:08:46;;;;;;;7.7;6.7;;;;;;;17.3;53.6;102110;;;;
2021/06/08 01:10:46;;;;;;;7.7;6.7;;;;;;;17.2;53.7;102110;;;;
2021/06/08 01:20:46;;;;;;;7.7;6.7;;;;;;;17.0;54.0;102110;;;;
2021/06/08 01:22:46;;;;;;;6.9;6.3;;;;;;;16.9;54.5;102110;;;;
2021/06/08 01:24:46;;;;;;;6.9;6.3;;;;;;;17.0;53.5;102110;;;;
2021/06/08 01:28:46;;;;;;;6.9;6.3;;;;;;;16.9;53.8;102110;;;;
2021/06/08 01:30:46;;;;;;;6.9;6.3;;;;;;;17.0;53.6;102110;;;;
2021/06/08 01:34:46;;;;;;;6.9;6.3;;;;;;;16.9;53.2;102110;;;;
2021/06/08 01:36:46;;;;;;;6.9;6.3;;;;;;;16.8;54.1;102110;;;;
2021/06/08 01:38:46;;;;;;;6.9;6.3;;;;;;;16.7;55.1;102120;;;;
2021/06/08 01:46:46;;;;;;;6.6;6.0;;;;;;;16.8;54.0;102110;;;;
2021/06/08 01:50:48;;;;;;;6.6;6.0;;;;;;;16.7;54.3;102110;;;;
2021/06/08 01:52:46;;;;;;;6.6;6.0;;;;;;;16.6;53.9;102110;;;;
2021/06/08 01:54:46;;;;;;;6.6;6.0;;;;;;;16.7;53.4;102110;;;;
2021/06/08 02:00:46;;;;;;;6.6;6.0;;;;;;;16.6;54.2;102110;;;;
2021/06/08 02:04:46;;;;;;;6.5;5.9;;;;;;;16.5;54.8;102110;;;;
2021/06/08 02:06:46;;;;;;;6.5;5.9;;;;;;;16.3;54.9;102110;;;;
2021/06/08 02:08:46;;;;;;;6.5;5.9;;;;;;;16.5;54.1;102110;;;;
2021/06/08 02:10:47;;;;;;;6.5;5.9;;;;;;;16.4;54.4;102120;;;;
2021/06/08 02:12:46;;;;;;;6.5;5.9;;;;;;;16.2;55.3;102120;;;;
2021/06/08 02:14:46;;;;;;;6.5;5.9;;;;;;;16.1;55.6;102110;;;;
2021/06/08 02:16:46;;;;;;;6.5;5.9;;;;;;;16.2;55.3;102120;;;;
2021/06/08 02:18:46;;;;;;;6.5;5.9;;;;;;;16.1;55.5;102120;;;;
2021/06/08 02:20:46;;;;;;;6.5;5.9;;;;;;;16.0;55.8;102110;;;;
2021/06/08 02:22:46;;;;;;;7.1;6.4;;;;;;;16.2;54.8;102110;;;;
2021/06/08 02:28:46;;;;;;;7.1;6.4;;;;;;;16.1;55.1;102120;;;;
2021/06/08 02:30:46;;;;;;;7.1;6.4;;;;;;;16.2;54.9;102110;;;;
2021/06/08 02:32:46;;;;;;;7.1;6.4;;;;;;;16.1;55.2;102120;;;;
2021/06/08 02:34:46;;;;;;;7.1;6.4;;;;;;;15.9;56.3;102120;;;;
2021/06/08 02:36:46;;;;;;;7.1;6.4;;;;;;;15.8;56.1;102120;;;;
2021/06/08 02:38:46;;;;;;;7.1;6.4;;;;;;;15.9;55.6;102120;;;;
2021/06/08 02:44:46;;;;;;;7.2;6.5;;;;;;;16.0;55.0;102120;;;;
2021/06/08 02:48:46;;;;;;;7.2;6.5;;;;;;;15.9;55.4;102120;;;;
2021/06/08 02:52:46;;;;;;;7.2;6.5;;;;;;;15.8;55.8;102130;;;;
2021/06/08 02:54:46;;;;;;;7.2;6.5;;;;;;;15.7;56.7;102120;;;;
2021/06/08 02:56:46;;;;;;;7.2;6.5;;;;;;;15.8;55.5;102130;;;;
2021/06/08 03:02:46;;;;;;;7.9;7.2;;;;;;;15.9;54.9;102130;;;;
2021/06/08 03:04:46;;;;;;;7.9;7.2;;;;;;;15.7;56.2;102130;;;;
2021/06/08 03:06:46;;;;;;;7.9;7.2;;;;;;;15.6;56.3;102130;;;;
2021/06/08 03:08:46;;;;;;;7.9;7.2;;;;;;;15.5;56.7;102130;;;;
2021/06/08 03:10:46;;;;;;;7.9;7.2;;;;;;;15.4;57.3;102130;;;;
2021/06/08 03:12:46;;;;;;;7.9;7.2;;;;;;;15.5;56.5;102130;;;;
2021/06/08 03:14:46;;;;;;;7.9;7.2;;;;;;;15.2;58.4;102130;;;;
2021/06/08 03:16:46;;;;;;;7.9;7.2;;;;;;;15.3;57.6;102140;;;;
2021/06/08 03:20:46;;;;;;;7.9;7.2;;;;;;;15.5;57.0;102130;;;;
2021/06/08 03:22:46;;;;;;;8.5;7.7;;;;;;;15.4;56.9;102130;;;;
2021/06/08 03:24:46;;;;;;;8.5;7.7;;;;;;;15.2;57.5;102130;;;;
2021/06/08 03:26:46;;;;;;;8.5;7.7;;;;;;;15.3;56.9;102130;;;;
2021/06/08 03:30:46;;;;;;;8.5;7.7;;;;;;;15.2;57.6;102130;;;;
2021/06/08 03:32:46;;;;;;;8.5;7.7;;;;;;;15.1;57.8;102130;;;;
2021/06/08 03:34:46;;;;;;;8.5;7.7;;;;;;;15.2;57.8;102130;;;;
2021/06/08 03:36:46;;;;;;;8.5;7.7;;;;;;;15.1;58.1;102130;;;;
2021/06/08 03:44:46;;;;;;;9.1;8.3;;;;;;;15.2;57.1;102140;;;;
2021/06/08 03:48:46;;;;;;;9.1;8.3;;;;;;;15.0;57.6;102140;;;;
2021/06/08 03:54:46;;;;;;;9.1;8.3;;;;;;;15.1;58.1;102140;;;;
2021/06/08 04:00:47;;;;;;;9.1;8.3;;;;;;;15.0;58.3;102140;;;;
2021/06/08 04:02:46;;;;;;;10.4;9.4;;;;;;;15.1;58.4;102140;;;;
2021/06/08 04:04:46;;;;;;;10.4;9.4;;;;;;;15.0;58.5;102140;;;;
2021/06/08 04:08:49;;;;;;;10.4;9.4;;;;;;;15.1;58.5;102140;;;;
2021/06/08 04:10:46;;;;;;;10.4;9.4;;;;;;;15.0;58.9;102150;;;;
2021/06/08 04:14:47;;;;;;;10.4;9.4;;;;;;;15.1;57.2;102140;;;;
2021/06/08 04:16:46;;;;;;;10.4;9.4;;;;;;;15.0;58.2;102140;;;;
2021/06/08 04:18:46;;;;;;;10.4;9.4;;;;;;;15.2;57.8;102140;;;;
2021/06/08 04:20:46;;;;;;;10.4;9.4;;;;;;;15.1;57.6;102140;;;;
2021/06/08 04:22:47;;;;;;;12.0;10.8;;;;;;;15.2;58.0;102130;;;;
2021/06/08 04:26:46;;;;;;;12.0;10.8;;;;;;;15.1;58.7;102140;;;;
2021/06/08 04:28:46;;;;;;;12.0;10.8;;;;;;;15.0;59.5;102140;;;;
2021/06/08 04:34:46;;;;;;;12.0;10.8;;;;;;;15.1;58.6;102140;;;;
2021/06/08 04:38:46;;;;;;;12.0;10.8;;;;;;;15.2;58.9;102140;;;;
2021/06/08 04:44:46;;;;;;;13.8;12.5;;;;;;;15.1;59.8;102140;;;;
2021/06/08 04:50:46;;;;;;;13.8;12.5;;;;;;;15.2;58.4;102140;;;;
2021/06/08 04:54:46;;;;;;;13.8;12.5;;;;;;;15.1;60.4;102130;;;;
2021/06/08 04:56:46;;;;;;;13.8;12.5;;;;;;;15.2;60.7;102140;;;;
2021/06/08 04:58:46;;;;;;;13.8;12.5;;;;;;;15.3;59.3;102140;;;;
2021/06/08 05:02:46;;;;;;;14.1;12.8;;;;;;;15.4;59.8;102140;;;;
2021/06/08 05:08:46;;;;;;;14.1;12.8;;;;;;;15.6;59.4;102130;;;;
2021/06/08 05:10:46;;;;;;;14.1;12.8;;;;;;;15.5;59.1;102130;;;;
2021/06/08 05:12:46;;;;;;;14.1;12.8;;;;;;;15.6;60.0;102130;;;;
2021/06/08 05:18:46;;;;;;;14.1;12.8;;;;;;;15.8;59.8;102140;;;;
2021/06/08 05:20:46;;;;;;;14.1;12.8;;;;;;;15.9;58.4;102130;;;;
2021/06/08 05:22:46;;;;;;;13.9;12.5;;;;;;;15.8;58.7;102140;;;;
2021/06/08 05:24:46;;;;;;;13.9;12.5;;;;;;;15.9;58.0;102140;;;;
2021/06/08 05:26:46;;;;;;;13.9;12.5;;;;;;;16.0;58.0;102130;;;;
2021/06/08 05:30:46;;;;;;;13.9;12.5;;;;;;;16.1;58.7;102140;;;;
2021/06/08 05:32:46;;;;;;;13.9;12.5;;;;;;;16.2;58.4;102140;;;;
2021/06/08 05:40:46;;;;;;;13.9;12.5;;;;;;;16.4;57.4;102140;;;;
2021/06/08 05:44:46;;;;;;;14.2;12.9;;;;;;;16.5;57.0;102140;;;;
2021/06/08 05:46:47;;;;;;;14.2;12.9;;;;;;;16.6;57.8;102150;;;;
2021/06/08 05:48:46;;;;;;;14.2;12.9;;;;;;;16.8;57.0;102150;;;;
2021/06/08 05:54:46;;;;;;;14.2;12.9;;;;;;;16.9;56.3;102150;;;;
2021/06/08 05:56:49;;;;;;;14.2;12.9;;;;;;;17.0;55.8;102160;;;;
2021/06/08 05:58:46;;;;;;;14.2;12.9;;;;;;;17.2;56.1;102160;;;;
2021/06/08 06:00:46;;;;;;;14.2;12.9;;;;;;;17.3;56.3;102160;;;;
2021/06/08 06:02:46;;;;;;;12.9;11.7;;;;;;;17.5;55.2;102160;;;;
2021/06/08 06:10:46;;;;;;;12.9;11.7;;;;;;;17.6;54.9;102160;;;;
2021/06/08 06:14:46;;;;;;;12.9;11.7;;;;;;;17.7;54.9;102160;;;;
2021/06/08 06:16:49;;;;;;;12.9;11.7;;;;;;;17.8;54.6;102160;;;;
2021/06/08 06:18:46;;;;;;;12.9;11.7;;;;;;;17.9;54.0;102160;;;;
2021/06/08 06:22:46;;;;;;;11.6;10.6;;;;;;;17.8;53.6;102160;;;;
2021/06/08 06:24:46;;;;;;;11.6;10.6;;;;;;;17.9;54.0;102170;;;;
2021/06/08 06:26:46;;;;;;;11.6;10.6;;;;;;;17.8;53.4;102170;;;;
2021/06/08 06:28:46;;;;;;;11.6;10.6;;;;;;;17.9;53.8;102170;;;;
2021/06/08 06:36:46;;;;;;;11.6;10.6;;;;;;;17.8;53.2;102170;;;;
2021/06/08 06:40:46;;;;;;;11.6;10.6;;;;;;;18.1;52.6;102170;;;;
2021/06/08 06:42:47;;;;;;;10.0;9.1;;;;;;;18.0;52.6;102170;;;;
2021/06/08 06:44:46;;;;;;;10.0;9.1;;;;;;;18.2;52.2;102170;;;;
2021/06/08 06:48:46;;;;;;;10.0;9.1;;;;;;;18.3;51.8;102170;;;;
2021/06/08 06:50:46;;;;;;;10.0;9.1;;;;;;;18.4;51.3;102170;;;;
2021/06/08 06:54:46;;;;;;;10.0;9.1;;;;;;;18.5;51.0;102170;;;;
2021/06/08 06:56:46;;;;;;;10.0;9.1;;;;;;;18.6;51.0;102170;;;;
2021/06/08 07:00:46;;;;;;;6.9;6.3;;;;;;;18.7;50.4;102170;;;;
2021/06/08 07:04:50;;;;;;;6.9;6.3;;;;;;;18.8;49.9;102170;;;;
2021/06/08 07:06:46;;;;;;;6.9;6.3;;;;;;;18.9;49.6;102170;;;;
2021/06/08 07:08:46;;;;;;;6.9;6.3;;;;;;;19.0;49.9;102170;;;;
2021/06/08 07:10:46;;;;;;;6.9;6.3;;;;;;;19.1;49.3;102170;;;;
2021/06/08 07:12:46;;;;;;;6.9;6.3;;;;;;;19.2;49.7;102170;;;;
2021/06/08 07:16:46;;;;;;;6.9;6.3;;;;;;;19.3;48.7;102170;;;;
2021/06/08 07:18:46;;;;;;;6.9;6.3;;;;;;;19.2;49.3;102170;;;;
2021/06/08 07:20:46;;;;;;;6.6;6.0;;;;;;;19.3;48.9;102170;;;;
2021/06/08 07:24:46;;;;;;;6.6;6.0;;;;;;;19.4;49.4;102170;;;;
2021/06/08 07:30:46;;;;;;;6.6;6.0;;;;;;;19.5;48.4;102170;;;;
2021/06/08 07:34:46;;;;;;;6.6;6.0;;;;;;;19.6;47.5;102160;;;;
2021/06/08 07:36:46;;;;;;;6.6;6.0;;;;;;;19.5;47.5;102160;;;;
2021/06/08 07:40:48;;;;;;;6.1;5.6;;;;;;;19.7;47.0;102160;;;;
2021/06/08 07:42:46;;;;;;;6.1;5.6;;;;;;;19.8;47.7;102160;;;;
2021/06/08 07:48:46;;;;;;;6.1;5.6;;;;;;;19.9;48.2;102160;;;;
2021/06/08 07:50:49;;;;;;;6.1;5.6;;;;;;;20.1;47.1;102170;;;;
2021/06/08 07:52:46;;;;;;;6.1;5.6;;;;;;;20.2;47.9;102160;;;;
2021/06/08 07:54:46;;;;;;;6.1;5.6;;;;;;;20.3;48.2;102170;;;;
2021/06/08 07:56:46;;;;;;;6.1;5.6;;;;;;;20.4;47.7;102170;;;;
2021/06/08 08:00:46;;;;;;;8.7;5.7;;;;;;;20.3;46.9;102160;;;;
2021/06/08 08:06:46;;;;;;;8.7;5.7;;;;;;;20.4;45.8;102160;;;;
2021/06/08 08:08:47;;;;;;;8.7;5.7;;;;;;;20.5;46.3;102160;;;;
2021/06/08 08:10:46;;;;;;;8.7;5.7;;;;;;;20.4;46.8;102160;;;;
2021/06/08 08:12:46;;;;;;;8.7;5.7;;;;;;;20.5;46.7;102160;;;;
2021/06/08 08:14:46;;;;;;;8.7;5.7;;;;;;;20.7;46.5;102160;;;;
2021/06/08 08:18:46;;;;;;;8.7;5.7;;;;;;;20.9;45.2;102160;;;;
2021/06/08 08:22:46;;;;;;;4.4;4.0;;;;;;;21.0;45.3;102150;;;;
2021/06/08 08:30:46;;;;;;;4.4;4.0;;;;;;;20.9;43.8;102160;;;;
2021/06/08 08:32:46;;;;;;;4.4;4.0;;;;;;;21.2;44.8;102150;;;;
2021/06/08 08:34:46;;;;;;;4.4;4.0;;;;;;;21.1;43.9;102150;;;;
2021/06/08 08:36:46;;;;;;;4.4;4.0;;;;;;;21.2;43.9;102140;;;;
2021/06/08 08:40:46;;;;;;;6.0;4.6;;;;;;;21.3;43.1;102140;;;;
2021/06/08 08:44:46;;;;;;;6.0;4.6;;;;;;;21.4;43.9;102140;;;;
2021/06/08 08:48:47;;;;;;;6.0;4.6;;;;;;;21.5;43.4;102130;;;;
2021/06/08 08:50:46;;;;;;;6.0;4.6;;;;;;;21.6;43.3;102140;;;;
2021/06/08 08:54:47;;;;;;;6.0;4.6;;;;;;;21.8;43.4;102130;;;;
2021/06/08 08:56:46;;;;;;;6.0;4.6;;;;;;;21.9;43.8;102130;;;;
2021/06/08 08:58:46;;;;;;;6.0;4.6;;;;;;;22.0;42.5;102130;;;;
2021/06/08 09:00:46;;;;;;;3.9;3.2;;;;;;;22.1;41.6;102130;;;;
2021/06/08 09:06:46;;;;;;;3.9;3.2;;;;;;;22.2;42.0;102130;;;;
2021/06/08 09:08:46;;;;;;;3.9;3.2;;;;;;;22.4;43.0;102130;;;;
2021/06/08 09:12:47;;;;;;;3.9;3.2;;;;;;;22.3;41.5;102130;;;;
2021/06/08 09:14:46;;;;;;;3.9;3.2;;;;;;;22.2;42.4;102120;;;;
2021/06/08 09:16:46;;;;;;;3.9;3.2;;;;;;;22.4;42.3;102120;;;;
2021/06/08 09:18:46;;;;;;;3.9;3.2;;;;;;;22.3;42.9;102120;;;;
2021/06/08 09:26:46;;;;;;;5.5;5.0;;;;;;;22.5;42.5;102120;;;;
2021/06/08 09:34:46;;;;;;;5.5;5.0;;;;;;;22.7;41.0;102120;;;;
2021/06/08 09:36:46;;;;;;;5.5;5.0;;;;;;;22.6;42.4;102110;;;;
2021/06/08 09:38:46;;;;;;;5.5;5.0;;;;;;;22.7;43.3;102110;;;;
2021/06/08 09:40:46;;;;;;;7.2;5.3;;;;;;;22.8;42.2;102110;;;;
2021/06/08 09:44:46;;;;;;;7.2;5.3;;;;;;;22.9;42.3;102110;;;;
2021/06/08 09:48:46;;;;;;;7.2;5.3;;;;;;;23.0;43.7;102100;;;;
2021/06/08 09:56:46;;;;;;;7.2;5.3;;;;;;;23.1;42.5;102110;;;;
2021/06/08 10:00:56;;;;;;;4.8;4.3;;;;;;;23.2;41.7;102110;;;;
2021/06/08 10:06:46;;;;;;;4.8;4.3;;;;;;;23.1;40.1;102100;;;;
2021/06/08 10:08:46;;;;;;;4.8;4.3;;;;;;;23.4;40.1;102100;;;;
2021/06/08 10:10:47;;;;;;;4.8;4.3;;;;;;;23.3;39.4;102100;;;;
2021/06/08 10:12:46;;;;;;;4.8;4.3;;;;;;;23.2;40.4;102100;;;;
2021/06/08 10:20:46;;;;;;;6.0;5.2;;;;;;;23.1;41.3;102100;;;;
2021/06/08 10:22:46;;;;;;;6.0;5.2;;;;;;;23.4;42.7;102090;;;;
2021/06/08 10:26:50;;;;;;;6.0;5.2;;;;;;;23.6;41.5;102090;;;;
2021/06/08 10:28:46;;;;;;;6.0;5.2;;;;;;;23.5;41.6;102090;;;;
2021/06/08 10:32:56;;;;;;;6.0;5.2;;;;;;;23.7;42.3;102090;;;;
2021/06/08 10:34:46;;;;;;;6.0;5.2;;;;;;;23.8;41.4;102090;;;;
2021/06/08 10:36:48;;;;;;;6.0;5.2;;;;;;;23.6;43.4;102090;;;;
2021/06/08 10:38:46;;;;;;;6.0;5.2;;;;;;;23.7;42.5;102090;;;;
2021/06/08 10:40:46;;;;;;;5.8;4.7;;;;;;;24.0;42.4;102090;;;;
2021/06/08 10:42:47;;;;;;;5.8;4.7;;;;;;;24.1;44.2;102090;;;;
2021/06/08 10:44:46;;;;;;;5.8;4.7;;;;;;;24.2;41.2;102080;;;;
2021/06/08 10:46:49;;;;;;;5.8;4.7;;;;;;;24.4;41.5;102080;;;;
2021/06/08 10:48:50;;;;;;;5.8;4.7;;;;;;;24.0;42.1;102080;;;;
2021/06/08 10:50:47;;;;;;;5.8;4.7;;;;;;;24.1;40.9;102080;;;;
2021/06/08 10:56:46;;;;;;;5.8;4.7;;;;;;;24.0;41.4;102090;;;;
2021/06/08 10:58:46;;;;;;;5.8;4.7;;;;;;;24.1;40.0;102090;;;;
2021/06/08 11:00:51;;;;;;;6.4;5.9;;;;;;;24.0;39.6;102080;;;;
2021/06/08 11:04:46;;;;;;;6.4;5.9;;;;;;;24.2;42.6;102080;;;;
2021/06/08 11:06:48;;;;;;;6.4;5.9;;;;;;;24.1;40.9;102080;;;;
2021/06/08 11:08:46;;;;;;;6.4;5.9;;;;;;;24.3;40.0;102090;;;;
2021/06/08 11:12:47;;;;;;;6.4;5.9;;;;;;;24.5;41.4;102080;;;;
2021/06/08 11:16:46;;;;;;;6.4;5.9;;;;;;;24.5;40.9;102070;;;;
2021/06/08 11:18:46;;;;;;;6.4;5.9;;;;;;;24.6;39.9;102080;;;;
2021/06/08 11:22:47;;;;;;;5.7;4.7;;;;;;;24.4;39.6;102080;;;;
2021/06/08 11:24:46;;;;;;;5.7;4.7;;;;;;;24.3;40.0;102080;;;;
2021/06/08 11:26:46;;;;;;;5.7;4.7;;;;;;;24.2;39.9;102080;;;;
2021/06/08 11:28:46;;;;;;;5.7;4.7;;;;;;;24.3;42.3;102080;;;;
2021/06/08 11:30:48;;;;;;;5.7;4.7;;;;;;;24.7;42.5;102070;;;;
2021/06/08 11:36:47;;;;;;;5.7;4.7;;;;;;;24.6;42.0;102070;;;;
2021/06/08 11:40:46;;;;;;;5.9;5.3;;;;;;;24.5;41.9;102080;;;;
2021/06/08 11:42:46;;;;;;;5.9;5.3;;;;;;;24.9;40.2;102080;;;;
2021/06/08 11:44:48;;;;;;;5.9;5.3;;;;;;;25.1;40.6;102080;;;;
2021/06/08 11:46:46;;;;;;;5.9;5.3;;;;;;;24.9;39.8;102080;;;;
2021/06/08 11:48:46;;;;;;;5.9;5.3;;;;;;;25.0;40.7;102080;;;;
2021/06/08 11:52:46;;;;;;;5.9;5.3;;;;;;;25.2;43.4;102080;;;;
2021/06/08 11:56:46;;;;;;;5.9;5.3;;;;;;;24.9;40.3;102080;;;;
2021/06/08 11:58:46;;;;;;;5.9;5.3;;;;;;;25.0;41.0;102070;;;;
2021/06/08 12:00:51;;;;;;;6.0;5.4;;;;;;;25.1;40.7;102070;;;;
2021/06/08 12:06:46;;;;;;;6.0;5.4;;;;;;;25.0;38.2;102060;;;;
2021/06/08 12:08:48;;;;;;;6.0;5.4;;;;;;;24.9;38.8;102060;;;;
2021/06/08 12:10:48;;;;;;;6.0;5.4;;;;;;;25.1;38.5;102060;;;;
2021/06/08 12:12:48;;;;;;;6.0;5.4;;;;;;;25.2;41.0;102060;;;;
2021/06/08 12:14:47;;;;;;;6.0;5.4;;;;;;;25.4;39.3;102060;;;;
2021/06/08 12:22:47;;;;;;;7.0;5.5;;;;;;;25.5;40.5;102060;;;;
2021/06/08 12:24:46;;;;;;;7.0;5.5;;;;;;;25.7;40.7;102060;;;;
2021/06/08 12:26:46;;;;;;;7.0;5.5;;;;;;;25.5;41.1;102060;;;;
2021/06/08 12:28:46;;;;;;;7.0;5.5;;;;;;;25.7;40.2;102050;;;;
2021/06/08 12:30:46;;;;;;;7.0;5.5;;;;;;;26.0;40.7;102050;;;;
2021/06/08 12:32:47;;;;;;;7.0;5.5;;;;;;;26.1;40.7;102050;;;;
2021/06/08 12:34:49;;;;;;;7.0;5.5;;;;;;;25.9;38.2;102050;;;;
2021/06/08 12:38:47;;;;;;;7.0;5.5;;;;;;;25.8;36.6;102040;;;;
2021/06/08 12:42:47;;;;;;;4.9;4.4;;;;;;;25.6;37.9;102050;;;;
2021/06/08 12:44:47;;;;;;;4.9;4.4;;;;;;;25.7;37.6;102040;;;;
2021/06/08 12:46:46;;;;;;;4.9;4.4;;;;;;;26.0;38.1;102040;;;;
2021/06/08 12:48:46;;;;;;;4.9;4.4;;;;;;;25.8;36.8;102040;;;;
2021/06/08 12:52:46;;;;;;;4.9;4.4;;;;;;;25.9;35.7;102040;;;;
2021/06/08 12:54:49;;;;;;;4.9;4.4;;;;;;;25.8;36.0;102040;;;;
2021/06/08 12:56:46;;;;;;;4.9;4.4;;;;;;;26.1;38.9;102040;;;;
2021/06/08 12:58:46;;;;;;;4.9;4.4;;;;;;;26.0;36.0;102040;;;;
2021/06/08 13:00:46;;;;;;;5.5;3.2;;;;;;;26.1;36.0;102040;;;;
2021/06/08 13:04:46;;;;;;;5.5;3.2;;;;;;;25.8;35.7;102040;;;;
2021/06/08 13:06:46;;;;;;;5.5;3.2;;;;;;;25.6;37.0;102040;;;;
2021/06/08 13:10:47;;;;;;;5.5;3.2;;;;;;;25.8;36.8;102040;;;;
2021/06/08 13:12:46;;;;;;;5.5;3.2;;;;;;;26.0;38.0;102030;;;;
2021/06/08 13:16:46;;;;;;;5.5;3.2;;;;;;;26.1;37.2;102030;;;;
2021/06/08 13:20:46;;;;;;;5.2;4.7;;;;;;;26.0;36.0;102040;;;;
2021/06/08 13:22:47;;;;;;;5.2;4.7;;;;;;;26.2;36.9;102040;;;;
2021/06/08 13:24:46;;;;;;;5.2;4.7;;;;;;;26.3;36.4;102020;;;;
2021/06/08 13:26:46;;;;;;;5.2;4.7;;;;;;;26.6;37.5;102020;;;;
2021/06/08 13:28:47;;;;;;;5.2;4.7;;;;;;;26.4;35.6;102020;;;;
2021/06/08 13:32:46;;;;;;;5.2;4.7;;;;;;;26.8;39.5;102020;;;;
2021/06/08 13:34:46;;;;;;;5.2;4.7;;;;;;;26.9;35.9;102020;;;;
2021/06/08 13:36:46;;;;;;;5.2;4.7;;;;;;;26.5;34.6;102020;;;;
2021/06/08 13:38:46;;;;;;;5.2;4.7;;;;;;;26.6;34.7;102030;;;;
2021/06/08 13:40:46;;;;;;;6.4;4.7;;;;;;;26.5;38.5;102030;;;;
2021/06/08 13:42:46;;;;;;;6.4;4.7;;;;;;;26.9;38.4;102020;;;;
2021/06/08 13:46:46;;;;;;;6.4;4.7;;;;;;;27.0;37.9;102020;;;;
2021/06/08 13:48:48;;;;;;;6.4;4.7;;;;;;;27.3;41.9;102010;;;;
2021/06/08 13:50:46;;;;;;;6.4;4.7;;;;;;;27.6;41.9;102010;;;;
2021/06/08 13:52:46;;;;;;;6.4;4.7;;;;;;;27.9;36.5;102010;;;;
2021/06/08 13:54:46;;;;;;;6.4;4.7;;;;;;;27.5;34.0;102010;;;;
2021/06/08 14:00:46;;;;;;;4.0;3.7;;;;;;;27.3;32.9;102000;;;;
2021/06/08 14:04:46;;;;;;;4.0;3.7;;;;;;;27.4;35.4;102000;;;;
2021/06/08 14:06:46;;;;;;;4.0;3.7;;;;;;;27.9;34.7;102000;;;;
2021/06/08 14:08:46;;;;;;;4.0;3.7;;;;;;;27.8;32.2;102000;;;;
2021/06/08 14:10:46;;;;;;;4.0;3.7;;;;;;;28.1;33.7;102000;;;;
2021/06/08 14:12:47;;;;;;;4.0;3.7;;;;;;;28.0;32.2;102000;;;;
2021/06/08 14:14:46;;;;;;;4.0;3.7;;;;;;;28.4;33.7;101990;;;;
2021/06/08 14:18:46;;;;;;;4.0;3.7;;;;;;;28.5;32.7;101990;;;;
2021/06/08 14:20:46;;;;;;;3.9;3.6;;;;;;;28.1;33.5;102000;;;;
2021/06/08 14:22:47;;;;;;;3.9;3.6;;;;;;;28.2;36.8;101990;;;;
2021/06/08 14:24:46;;;;;;;3.9;3.6;;;;;;;28.4;37.7;101990;;;;
2021/06/08 14:26:46;;;;;;;3.9;3.6;;;;;;;28.6;36.9;101990;;;;
2021/06/08 14:28:46;;;;;;;3.9;3.6;;;;;;;28.7;38.3;101980;;;;
2021/06/08 14:30:46;;;;;;;3.9;3.6;;;;;;;28.8;39.1;101980;;;;
2021/06/08 14:32:47;;;;;;;3.9;3.6;;;;;;;29.1;38.0;101990;;;;
2021/06/08 14:34:46;;;;;;;3.9;3.6;;;;;;;28.8;33.8;101980;;;;
2021/06/08 14:36:46;;;;;;;3.9;3.6;;;;;;;29.4;38.4;101970;;;;
2021/06/08 14:38:46;;;;;;;3.9;3.6;;;;;;;29.2;34.6;101970;;;;
2021/06/08 14:40:46;;;;;;;4.3;4.0;;;;;;;29.1;34.5;101970;;;;
2021/06/08 14:42:48;;;;;;;4.3;4.0;;;;;;;29.3;32.2;101970;;;;
2021/06/08 14:44:46;;;;;;;4.3;4.0;;;;;;;29.6;34.1;101970;;;;
2021/06/08 14:46:46;;;;;;;4.3;4.0;;;;;;;29.3;29.3;101970;;;;
2021/06/08 14:48:46;;;;;;;4.3;4.0;;;;;;;29.6;32.7;101970;;;;
2021/06/08 14:52:47;;;;;;;4.3;4.0;;;;;;;29.4;33.1;101970;;;;
2021/06/08 14:56:46;;;;;;;4.3;4.0;;;;;;;28.9;32.3;101970;;;;
2021/06/08 14:58:46;;;;;;;4.3;4.0;;;;;;;29.1;33.7;101970;;;;
2021/06/08 15:02:47;;;;;;;3.9;3.6;;;;;;;29.2;34.9;101970;;;;
2021/06/08 15:04:48;;;;;;;3.9;3.6;;;;;;;28.8;33.2;101970;;;;
2021/06/08 15:06:46;;;;;;;3.9;3.6;;;;;;;29.1;33.6;101960;;;;
2021/06/08 15:08:46;;;;;;;3.9;3.6;;;;;;;29.6;34.7;101960;;;;
2021/06/08 15:10:46;;;;;;;3.9;3.6;;;;;;;30.1;34.1;101960;;;;
2021/06/08 15:12:47;;;;;;;3.9;3.6;;;;;;;30.4;31.4;101960;;;;
2021/06/08 15:14:46;;;;;;;3.9;3.6;;;;;;;30.5;29.1;101960;;;;
2021/06/08 15:16:46;;;;;;;3.9;3.6;;;;;;;31.0;30.7;101950;;;;
2021/06/08 15:18:46;;;;;;;3.9;3.6;;;;;;;31.5;29.4;101950;;;;
2021/06/08 15:22:47;;;;;;;4.7;4.2;;;;;;;31.4;30.0;101950;;;;
2021/06/08 15:24:46;;;;;;;4.7;4.2;;;;;;;31.1;30.5;101950;;;;
2021/06/08 15:26:46;;;;;;;4.7;4.2;;;;;;;30.9;29.3;101950;;;;
2021/06/08 15:28:47;;;;;;;4.7;4.2;;;;;;;30.7;28.4;101950;;;;
2021/06/08 15:30:46;;;;;;;4.7;4.2;;;;;;;30.8;31.7;101950;;;;
2021/06/08 15:32:47;;;;;;;4.7;4.2;;;;;;;31.3;27.9;101950;;;;
2021/06/08 15:34:46;;;;;;;4.7;4.2;;;;;;;31.6;29.8;101940;;;;
2021/06/08 15:36:46;;;;;;;4.7;4.2;;;;;;;31.4;28.5;101940;;;;
2021/06/08 15:38:48;;;;;;;4.7;4.2;;;;;;;30.7;27.7;101940;;;;
2021/06/08 15:40:46;;;;;;;5.2;4.7;;;;;;;30.1;27.8;101940;;;;
2021/06/08 15:42:47;;;;;;;5.2;4.7;;;;;;;30.2;28.8;101940;;;;
2021/06/08 15:44:46;;;;;;;5.2;4.7;;;;;;;29.9;30.9;101940;;;;
2021/06/08 15:48:46;;;;;;;5.2;4.7;;;;;;;29.3;29.8;101950;;;;
2021/06/08 15:50:46;;;;;;;5.2;4.7;;;;;;;29.5;29.7;101950;;;;
2021/06/08 15:52:47;;;;;;;5.2;4.7;;;;;;;29.6;31.2;101950;;;;
2021/06/08 15:54:47;;;;;;;5.2;4.7;;;;;;;29.5;31.1;101950;;;;
2021/06/08 15:56:46;;;;;;;5.2;4.7;;;;;;;29.6;31.1;101950;;;;
2021/06/08 15:58:49;;;;;;;5.2;4.7;;;;;;;29.5;30.6;101940;;;;
2021/06/08 16:00:47;;;;;;;4.7;4.3;;;;;;;29.4;31.2;101940;;;;
2021/06/08 16:02:47;;;;;;;4.7;4.3;;;;;;;29.2;32.5;101940;;;;
2021/06/08 16:04:47;;;;;;;4.7;4.3;;;;;;;29.1;30.8;101940;;;;
2021/06/08 16:06:57;;;;;;;4.7;4.3;;;;;;;28.8;31.2;101940;;;;
2021/06/08 16:08:47;;;;;;;4.7;4.3;;;;;;;28.6;31.4;101940;;;;
2021/06/08 16:10:46;;;;;;;4.7;4.3;;;;;;;28.9;34.5;101940;;;;
2021/06/08 16:12:48;;;;;;;4.7;4.3;;;;;;;29.0;34.6;101940;;;;
2021/06/08 16:14:46;;;;;;;4.7;4.3;;;;;;;28.4;31.7;101940;;;;
2021/06/08 16:16:47;;;;;;;4.7;4.3;;;;;;;28.3;33.7;101940;;;;
2021/06/08 16:18:46;;;;;;;4.7;4.3;;;;;;;28.6;31.1;101940;;;;
2021/06/08 16:20:46;;;;;;;5.8;5.3;;;;;;;28.9;31.9;101940;;;;
2021/06/08 16:22:46;;;;;;;5.8;5.3;;;;;;;29.3;32.4;101940;;;;
2021/06/08 16:24:46;;;;;;;5.8;5.3;;;;;;;29.2;31.0;101940;;;;
2021/06/08 16:26:46;;;;;;;5.8;5.3;;;;;;;29.1;30.3;101940;;;;
2021/06/08 16:28:46;;;;;;;5.8;5.3;;;;;;;29.2;30.3;101930;;;;
2021/06/08 16:30:46;;;;;;;5.8;5.3;;;;;;;29.6;31.5;101930;;;;
2021/06/08 16:32:46;;;;;;;5.8;5.3;;;;;;;30.0;31.4;101930;;;;
2021/06/08 16:34:46;;;;;;;5.8;5.3;;;;;;;29.9;29.4;101920;;;;
2021/06/08 16:36:46;;;;;;;5.8;5.3;;;;;;;30.2;30.2;101930;;;;
2021/06/08 16:38:46;;;;;;;5.8;5.3;;;;;;;30.1;30.1;101930;;;;
2021/06/08 16:40:46;;;;;;;5.8;5.4;;;;;;;30.2;28.6;101930;;;;
2021/06/08 16:42:46;;;;;;;5.8;5.4;;;;;;;30.8;30.8;101930;;;;
2021/06/08 16:44:46;;;;;;;5.8;5.4;;;;;;;31.4;33.7;101920;;;;
2021/06/08 16:46:46;;;;;;;5.8;5.4;;;;;;;31.5;28.0;101920;;;;
2021/06/08 16:48:46;;;;;;;5.8;5.4;;;;;;;30.9;28.7;101920;;;;
2021/06/08 16:56:46;;;;;;;5.8;5.4;;;;;;;31.5;27.7;101920;;;;
2021/06/08 16:58:46;;;;;;;5.8;5.4;;;;;;;31.8;30.2;101910;;;;
2021/06/08 17:00:47;;;;;;;17.2;7.2;;;;;;;32.2;29.1;101910;;;;
2021/06/08 17:04:46;;;;;;;17.2;7.2;;;;;;;32.4;32.1;101920;;;;
2021/06/08 17:06:47;;;;;;;17.2;7.2;;;;;;;32.1;28.1;101910;;;;
2021/06/08 17:08:46;;;;;;;17.2;7.2;;;;;;;32.9;28.3;101910;;;;
2021/06/08 17:10:46;;;;;;;17.2;7.2;;;;;;;32.7;28.1;101910;;;;
2021/06/08 17:12:46;;;;;;;17.2;7.2;;;;;;;32.2;25.9;101910;;;;
2021/06/08 17:14:46;;;;;;;17.2;7.2;;;;;;;31.9;26.7;101910;;;;
2021/06/08 17:16:46;;;;;;;17.2;7.2;;;;;;;31.6;27.9;101910;;;;
2021/06/08 17:18:46;;;;;;;17.2;7.2;;;;;;;30.9;27.0;101920;;;;
2021/06/08 17:20:46;;;;;;;4.9;4.5;;;;;;;31.1;28.3;101910;;;;
2021/06/08 17:22:46;;;;;;;4.9;4.5;;;;;;;30.9;27.7;101910;;;;
2021/06/08 17:24:46;;;;;;;4.9;4.5;;;;;;;30.5;27.5;101910;;;;
2021/06/08 17:26:46;;;;;;;4.9;4.5;;;;;;;30.2;28.2;101920;;;;
2021/06/08 17:28:46;;;;;;;4.9;4.5;;;;;;;30.4;27.7;101910;;;;
2021/06/08 17:30:46;;;;;;;4.9;4.5;;;;;;;30.0;27.6;101920;;;;
2021/06/08 17:32:46;;;;;;;4.9;4.5;;;;;;;30.4;29.7;101910;;;;
2021/06/08 17:34:46;;;;;;;4.9;4.5;;;;;;;30.6;28.1;101910;;;;
2021/06/08 17:36:46;;;;;;;4.9;4.5;;;;;;;30.5;27.9;101910;;;;
2021/06/08 17:40:46;;;;;;;5.8;5.3;;;;;;;30.6;28.4;101910;;;;
2021/06/08 17:42:47;;;;;;;5.8;5.3;;;;;;;30.9;27.2;101910;;;;
2021/06/08 17:44:46;;;;;;;5.8;5.3;;;;;;;30.7;27.2;101910;;;;
2021/06/08 17:46:46;;;;;;;5.8;5.3;;;;;;;30.9;29.4;101910;;;;
2021/06/08 17:48:46;;;;;;;5.8;5.3;;;;;;;31.1;27.7;101910;;;;
2021/06/08 17:52:46;;;;;;;5.8;5.3;;;;;;;30.2;28.0;101900;;;;
2021/06/08 17:54:46;;;;;;;5.8;5.3;;;;;;;29.3;28.9;101910;;;;
2021/06/08 17:58:46;;;;;;;5.8;5.3;;;;;;;29.5;30.4;101900;;;;
2021/06/08 18:00:46;;;;;;;6.3;5.7;;;;;;;28.9;30.4;101900;;;;
2021/06/08 18:02:46;;;;;;;6.3;5.7;;;;;;;28.2;32.1;101900;;;;
2021/06/08 18:04:46;;;;;;;6.3;5.7;;;;;;;28.4;31.1;101900;;;;
2021/06/08 18:06:52;;;;;;;6.3;5.7;;;;;;;28.3;30.9;101900;;;;
2021/06/08 18:08:46;;;;;;;6.3;5.7;;;;;;;28.1;32.3;101900;;;;
2021/06/08 18:10:46;;;;;;;6.3;5.7;;;;;;;27.8;32.6;101900;;;;
2021/06/08 18:14:46;;;;;;;6.3;5.7;;;;;;;27.6;32.7;101900;;;;
2021/06/08 18:16:49;;;;;;;6.3;5.7;;;;;;;27.9;34.8;101910;;;;
2021/06/08 18:18:49;;;;;;;6.3;5.7;;;;;;;27.6;34.3;101910;;;;
2021/06/08 18:22:46;;;;;;;7.2;6.5;;;;;;;27.3;33.1;101910;;;;
2021/06/08 18:26:46;;;;;;;7.2;6.5;;;;;;;27.1;35.8;101910;;;;
2021/06/08 18:28:46;;;;;;;7.2;6.5;;;;;;;27.3;34.5;101920;;;;